Time;durP1;ratioP1;P1;durP2;ratioP2;P2;SDS_P1;SDS_P2;PMS_P1;PMS_P2;Temp;Humidity;BMP_temperature;BMP_pressure;BME280_temperature;BME280_humidity;BME280_pressure;Samples;Min_cycle;Max_cycle;Signal;HPM_P1;HPM_P2
2021/04/28 00:02:22;;;;;;;4.57;3.43;;;;;;;;;;4374891;32;20209;-74
2021/04/28 00:05:02;;;;;;;6.50;4.30;;;;;;;;;;4374334;32;20138;-74
2021/04/28 00:07:27;;;;;;;5.63;3.70;;;;;;;;;;4375454;32;20177;-74
2021/04/28 00:09:56;;;;;;;11.40;4.30;;;;;;;;;;4374823;32;20139;-73
2021/04/28 00:12:42;;;;;;;7.40;4.20;;;;;;;;;;4374732;32;20159;-73
2021/04/28 00:15:09;;;;;;;7.80;4.07;;;;;;;;;;4374913;32;20576;-73
2021/04/28 00:17:35;;;;;;;7.03;3.83;;;;;;;;;;4374903;32;20174;-73
2021/04/28 00:20:01;;;;;;;7.73;4.10;;;;;;;;;;4374746;32;20594;-73
2021/04/28 00:22:26;;;;;;;8.20;4.07;;;;;;;;;;4375209;32;20198;-73
2021/04/28 00:24:51;;;;;;;7.40;4.00;;;;;;;;;;4374700;32;20158;-73
2021/04/28 00:27:16;;;;;;;5.73;4.07;;;;;;;;;;4375469;32;20587;-73
2021/04/28 00:29:42;;;;;;;5.90;4.20;;;;;;;;;;4375953;32;20185;-73
2021/04/28 00:32:07;;;;;;;5.47;3.80;;;;;;;;;;4365735;32;20186;-74
2021/04/28 00:34:32;;;;;;;8.00;3.93;;;;;;;;;;4359741;33;20143;-73
2021/04/28 00:36:58;;;;;;;5.50;3.90;;;;;;;;;;4359711;33;20147;-73
2021/04/28 00:39:23;;;;;;;6.03;3.97;;;;;;;;;;4359992;33;20158;-73
2021/04/28 00:42:18;;;;;;;6.40;4.53;;;;;;;;;;4360077;33;20545;-72
2021/04/28 00:45:18;;;;;;;5.27;4.23;;;;;;;;;;4343733;33;20239;-73
2021/04/28 00:48:05;;;;;;;7.00;3.67;;;;;;;;;;4360369;33;20549;-74
2021/04/28 00:50:51;;;;;;;7.07;4.30;;;;;;;;;;4356578;33;20250;-73
2021/04/28 00:53:21;;;;;;;6.03;4.23;;;;;;;;;;4373353;32;20587;-73
2021/04/28 00:59:30;;;;;;;5.40;4.00;;;;;;;;;;4354612;32;20223;-72
2021/04/28 01:02:28;;;;;;;9.30;4.60;;;;;;;;;;4377838;32;20186;-73
2021/04/28 01:04:53;;;;;;;7.60;3.83;;;;;;;;;;4372028;32;20233;-73
2021/04/28 01:07:51;;;;;;;8.07;4.20;;;;;;;;;;4377612;32;20444;-72
2021/04/28 01:13:09;;;;;;;7.83;4.40;;;;;;;;;;4368858;32;20200;-72
2021/04/28 01:15:58;;;;;;;8.43;4.57;;;;;;;;;;4377526;32;20174;-73
2021/04/28 01:18:23;;;;;;;7.20;4.73;;;;;;;;;;4377616;32;20537;-74
2021/04/28 01:20:49;;;;;;;8.60;4.10;;;;;;;;;;4376915;32;20150;-75
2021/04/28 01:23:25;;;;;;;8.13;4.13;;;;;;;;;;4377507;32;20533;-74
2021/04/28 01:25:51;;;;;;;7.57;4.53;;;;;;;;;;4376470;32;20158;-74
2021/04/28 01:28:26;;;;;;;;;;;;;;;;;;;;;
2021/04/28 01:31:11;;;;;;;6.83;3.97;;;;;;;;;;4356836;32;20606;-74
2021/04/28 01:33:41;;;;;;;7.13;4.40;;;;;;;;;;4377485;32;20158;-74
2021/04/28 01:36:14;;;;;;;8.27;4.40;;;;;;;;;;4377071;32;20138;-74
2021/04/28 01:38:41;;;;;;;10.60;4.80;;;;;;;;;;4363777;32;20185;-74
2021/04/28 01:41:07;;;;;;;6.77;4.37;;;;;;;;;;4373573;32;20228;-74
2021/04/28 01:43:49;;;;;;;6.70;4.50;;;;;;;;;;4361818;32;20165;-75
2021/04/28 01:46:39;;;;;;;6.53;4.40;;;;;;;;;;4362459;32;20143;-74
2021/04/28 01:49:10;;;;;;;;;;;;;;;;;;;;;
2021/04/28 01:51:37;;;;;;;7.83;4.80;;;;;;;;;;4361007;32;20173;-73
2021/04/28 01:54:10;;;;;;;7.57;4.83;;;;;;;;;;4361915;32;20159;-73
2021/04/28 01:59:50;;;;;;;10.90;4.70;;;;;;;;;;4309413;33;20156;-73
2021/04/28 02:02:44;;;;;;;8.63;4.37;;;;;;;;;;4315481;33;20206;-73
2021/04/28 02:08:06;;;;;;;9.47;5.30;;;;;;;;;;4361988;32;20556;-73
2021/04/28 02:10:53;;;;;;;7.17;5.00;;;;;;;;;;4361306;32;20197;-73
2021/04/28 02:13:46;;;;;;;8.87;4.70;;;;;;;;;;4361275;32;20232;-72
2021/04/28 02:16:12;;;;;;;9.83;4.93;;;;;;;;;;4361269;32;20199;-73
2021/04/28 02:19:05;;;;;;;8.30;5.37;;;;;;;;;;4361508;32;20140;-73
2021/04/28 02:21:30;;;;;;;8.00;5.63;;;;;;;;;;4360879;32;20200;-73
2021/04/28 02:23:56;;;;;;;7.10;5.20;;;;;;;;;;4361058;33;20138;-73
2021/04/28 02:26:21;;;;;;;9.27;5.40;;;;;;;;;;4361343;32;20231;-73
2021/04/28 02:29:07;;;;;;;9.73;5.30;;;;;;;;;;4361545;32;20140;-73
2021/04/28 02:31:33;;;;;;;9.93;4.80;;;;;;;;;;4361470;32;20167;-73
2021/04/28 02:37:43;;;;;;;8.60;5.37;;;;;;;;;;4359035;32;20213;-73
2021/04/28 02:40:10;;;;;;;11.03;5.13;;;;;;;;;;4346900;33;20205;-73
2021/04/28 02:43:20;;;;;;;;;;;;;;;;;;;;;
2021/04/28 02:49:11;;;;;;;8.87;5.30;;;;;;;;;;4286236;33;20195;-72
2021/04/28 02:51:38;;;;;;;9.23;5.40;;;;;;;;;;4285944;33;20140;-72
2021/04/28 02:54:13;;;;;;;11.80;5.97;;;;;;;;;;4344577;33;20186;-72
2021/04/28 02:56:38;;;;;;;8.80;5.70;;;;;;;;;;4361648;32;20157;-72
2021/04/28 02:59:04;;;;;;;9.27;5.40;;;;;;;;;;4360634;32;20143;-72
2021/04/28 03:01:51;;;;;;;9.77;6.13;;;;;;;;;;4360713;32;20150;-72
2021/04/28 03:04:18;;;;;;;11.73;5.77;;;;;;;;;;4345845;33;20207;-72
2021/04/28 03:06:55;;;;;;;9.83;5.80;;;;;;;;;;4332931;33;20170;-72
2021/04/28 03:12:44;;;;;;;10.57;5.93;;;;;;;;;;4314866;33;20213;-72
2021/04/28 03:15:12;;;;;;;8.67;5.83;;;;;;;;;;4345101;33;20499;-72
2021/04/28 03:17:37;;;;;;;10.77;5.63;;;;;;;;;;4346288;33;20140;-72
2021/04/28 03:20:06;;;;;;;11.07;6.07;;;;;;;;;;4345789;33;20132;-72
2021/04/28 03:22:40;;;;;;;9.83;6.13;;;;;;;;;;4345471;33;20166;-72
2021/04/28 03:25:06;;;;;;;8.57;5.77;;;;;;;;;;4346014;33;20171;-72
2021/04/28 03:27:32;;;;;;;10.80;6.23;;;;;;;;;;4345770;33;20177;-72
2021/04/28 03:30:00;;;;;;;11.80;6.10;;;;;;;;;;4346135;33;20139;-72
2021/04/28 03:32:25;;;;;;;9.87;6.50;;;;;;;;;;4345870;33;20179;-72
2021/04/28 03:34:50;;;;;;;11.13;7.00;;;;;;;;;;4332335;33;20155;-73
2021/04/28 03:37:15;;;;;;;10.97;6.83;;;;;;;;;;4345642;33;20130;-73
2021/04/28 03:39:41;;;;;;;11.53;6.30;;;;;;;;;;4345815;33;20156;-73
2021/04/28 03:42:07;;;;;;;8.07;6.27;;;;;;;;;;4345312;33;20135;-73
2021/04/28 03:44:32;;;;;;;9.87;6.33;;;;;;;;;;4345809;33;20201;-73
2021/04/28 03:46:57;;;;;;;9.50;6.33;;;;;;;;;;4345588;33;20135;-73
2021/04/28 03:49:32;;;;;;;10.43;6.47;;;;;;;;;;4345614;33;20155;-73
2021/04/28 03:51:59;;;;;;;10.83;6.87;;;;;;;;;;4346523;33;20123;-73
2021/04/28 03:54:24;;;;;;;13.80;6.90;;;;;;;;;;4345541;33;20474;-73
2021/04/28 03:56:55;;;;;;;9.13;6.53;;;;;;;;;;4332236;33;20159;-73
2021/04/28 03:59:20;;;;;;;9.00;6.50;;;;;;;;;;4345619;33;20190;-73
2021/04/28 04:01:45;;;;;;;15.63;7.03;;;;;;;;;;4346139;33;20203;-72
2021/04/28 04:04:11;;;;;;;12.33;6.80;;;;;;;;;;4332218;33;20167;-73
2021/04/28 04:06:37;;;;;;;12.77;6.87;;;;;;;;;;4345846;33;20143;-72
2021/04/28 04:09:02;;;;;;;10.77;6.60;;;;;;;;;;4345493;33;20140;-73
2021/04/28 04:11:29;;;;;;;12.27;6.70;;;;;;;;;;4345257;33;20143;-74
2021/04/28 04:13:57;;;;;;;10.07;6.40;;;;;;;;;;4344326;33;20162;-74
2021/04/28 04:16:41;;;;;;;11.33;6.73;;;;;;;;;;4345149;33;20140;-74
2021/04/28 04:19:15;;;;;;;11.30;6.07;;;;;;;;;;4345590;33;20161;-72
2021/04/28 04:22:20;;;;;;;10.20;5.77;;;;;;;;;;4345734;33;20136;-73
2021/04/28 04:24:55;;;;;;;11.77;5.97;;;;;;;;;;4338744;33;20194;-73
2021/04/28 04:27:24;;;;;;;9.13;6.63;;;;;;;;;;4331344;33;20182;-72
2021/04/28 04:29:49;;;;;;;9.97;5.47;;;;;;;;;;4345133;33;20163;-73
2021/04/28 04:32:15;;;;;;;9.87;6.30;;;;;;;;;;4349558;33;20241;-73
2021/04/28 04:34:40;;;;;;;8.63;6.10;;;;;;;;;;4363028;32;20151;-73
2021/04/28 04:37:05;;;;;;;10.23;5.70;;;;;;;;;;4362571;32;20151;-73
2021/04/28 04:39:31;;;;;;;9.93;5.67;;;;;;;;;;4362887;33;20135;-72
2021/04/28 04:41:56;;;;;;;9.03;6.13;;;;;;;;;;4362796;32;20135;-72
2021/04/28 04:44:22;;;;;;;11.53;5.87;;;;;;;;;;4362347;32;20158;-72
2021/04/28 04:46:47;;;;;;;8.47;5.80;;;;;;;;;;4362294;33;20140;-73
2021/04/28 04:49:43;;;;;;;;;;;;;;;;;;;;;
2021/04/28 04:52:15;;;;;;;7.97;5.60;;;;;;;;;;4362799;33;20178;-73
2021/04/28 04:54:40;;;;;;;9.73;5.57;;;;;;;;;;4362619;33;20135;-73
2021/04/28 04:57:05;;;;;;;9.67;6.03;;;;;;;;;;4362990;33;20209;-72
2021/04/28 04:59:43;;;;;;;7.80;5.73;;;;;;;;;;4362405;32;20135;-72
2021/04/28 05:02:14;;;;;;;9.63;5.80;;;;;;;;;;4362893;32;20131;-73
2021/04/28 05:04:39;;;;;;;10.37;5.53;;;;;;;;;;4362786;33;20508;-72
2021/04/28 05:07:05;;;;;;;11.50;5.53;;;;;;;;;;4362252;32;20227;-72
2021/04/28 05:10:00;;;;;;;11.97;5.87;;;;;;;;;;4361950;33;20197;-73
2021/04/28 05:12:25;;;;;;;9.07;5.40;;;;;;;;;;4349487;33;20175;-73
2021/04/28 05:15:14;;;;;;;7.50;5.30;;;;;;;;;;4362377;32;20135;-72
2021/04/28 05:18:02;;;;;;;10.53;6.20;;;;;;;;;;4360689;33;20264;-73
2021/04/28 05:20:27;;;;;;;9.87;6.10;;;;;;;;;;4355822;33;20183;-74
2021/04/28 05:22:56;;;;;;;11.33;5.90;;;;;;;;;;4362436;33;20417;-74
2021/04/28 05:25:25;;;;;;;11.80;5.80;;;;;;;;;;4362012;32;20165;-72
2021/04/28 05:27:53;;;;;;;9.63;6.17;;;;;;;;;;4373146;32;20151;-72
2021/04/28 05:30:20;;;;;;;9.67;5.40;;;;;;;;;;4377029;32;20140;-73
2021/04/28 05:32:51;;;;;;;9.03;6.00;;;;;;;;;;4376636;32;20174;-73
2021/04/28 05:35:20;;;;;;;8.93;5.60;;;;;;;;;;4377161;32;20138;-72
2021/04/28 05:37:45;;;;;;;9.70;5.80;;;;;;;;;;4376549;32;20138;-73
2021/04/28 05:40:43;;;;;;;;;;;;;;;;;;;;;
2021/04/28 05:43:09;;;;;;;8.93;5.20;;;;;;;;;;4315243;33;20152;-72
2021/04/28 05:48:28;;;;;;;8.90;5.60;;;;;;;;;;4363963;32;20234;-73
2021/04/28 05:51:43;;;;;;;;;;;;;;;;;;;;;
2021/04/28 05:54:09;;;;;;;10.20;5.70;;;;;;;;;;4376476;32;20169;-72
2021/04/28 05:56:41;;;;;;;12.47;5.90;;;;;;;;;;4376909;32;20566;-73
2021/04/28 05:59:06;;;;;;;10.83;5.27;;;;;;;;;;4376747;32;20139;-72
2021/04/28 06:01:32;;;;;;;9.17;4.90;;;;;;;;;;4376626;32;20185;-74
2021/04/28 06:03:57;;;;;;;15.10;9.47;;;;;;;;;;4376662;32;20143;-73
2021/04/28 06:06:23;;;;;;;10.63;6.03;;;;;;;;;;4376714;32;20139;-73
2021/04/28 06:08:50;;;;;;;10.23;5.63;;;;;;;;;;4376415;32;20245;-72
2021/04/28 06:11:18;;;;;;;9.87;5.73;;;;;;;;;;4376860;32;20150;-73
2021/04/28 06:13:50;;;;;;;8.63;5.60;;;;;;;;;;4377101;32;20218;-73
2021/04/28 06:16:15;;;;;;;11.67;6.07;;;;;;;;;;4363895;32;20162;-72
2021/04/28 06:18:53;;;;;;;8.27;5.60;;;;;;;;;;4376608;32;20181;-71
2021/04/28 06:21:18;;;;;;;8.97;6.00;;;;;;;;;;4364062;32;20155;-73
2021/04/28 06:23:53;;;;;;;10.93;5.97;;;;;;;;;;4376890;32;20131;-72
2021/04/28 06:26:18;;;;;;;16.13;5.77;;;;;;;;;;4374921;32;20220;-73
2021/04/28 06:28:47;;;;;;;13.60;6.57;;;;;;;;;;4376641;32;20230;-72
2021/04/28 06:31:15;;;;;;;9.87;5.43;;;;;;;;;;4376263;32;20161;-72
2021/04/28 06:33:42;;;;;;;12.83;5.90;;;;;;;;;;4376522;32;20151;-72
2021/04/28 06:36:08;;;;;;;12.73;5.80;;;;;;;;;;4375600;32;20494;-71
2021/04/28 06:38:34;;;;;;;10.43;5.80;;;;;;;;;;4376240;32;20161;-72
2021/04/28 06:41:00;;;;;;;10.17;5.80;;;;;;;;;;4376009;32;20147;-73
2021/04/28 06:43:25;;;;;;;10.87;6.67;;;;;;;;;;4375775;32;20205;-71
2021/04/28 06:46:12;;;;;;;13.23;6.40;;;;;;;;;;4376534;32;20480;-73
2021/04/28 06:48:38;;;;;;;10.27;5.53;;;;;;;;;;4375932;32;20149;-72
2021/04/28 06:51:04;;;;;;;12.87;6.40;;;;;;;;;;4375822;32;20146;-73
2021/04/28 06:53:29;;;;;;;13.47;6.50;;;;;;;;;;4374997;32;20181;-73
2021/04/28 06:56:03;;;;;;;10.00;5.80;;;;;;;;;;4375578;32;20135;-74
2021/04/28 06:58:32;;;;;;;11.10;5.70;;;;;;;;;;4376108;32;20165;-72
2021/04/28 07:01:09;;;;;;;14.23;6.50;;;;;;;;;;4375718;32;20522;-72
2021/04/28 07:03:37;;;;;;;11.17;6.00;;;;;;;;;;4372247;32;20189;-72
2021/04/28 07:06:05;;;;;;;12.23;6.20;;;;;;;;;;4375155;32;20173;-73
2021/04/28 07:08:33;;;;;;;11.17;6.43;;;;;;;;;;4374476;32;20222;-73
2021/04/28 07:10:58;;;;;;;12.67;6.90;;;;;;;;;;4375933;32;20170;-72
2021/04/28 07:13:24;;;;;;;9.67;5.97;;;;;;;;;;4375209;32;20170;-73
2021/04/28 07:15:59;;;;;;;;;;;;;;;;;;;;;
2021/04/28 07:18:25;;;;;;;11.73;6.13;;;;;;;;;;4372964;32;20602;-72
2021/04/28 07:20:53;;;;;;;15.10;6.43;;;;;;;;;;4375741;32;20148;-72
2021/04/28 07:23:19;;;;;;;12.27;6.50;;;;;;;;;;4374871;32;20139;-73
2021/04/28 07:25:44;;;;;;;10.10;6.03;;;;;;;;;;4375262;32;20225;-72
2021/04/28 07:28:10;;;;;;;12.30;6.30;;;;;;;;;;4375074;32;20615;-72
2021/04/28 07:30:36;;;;;;;9.43;6.40;;;;;;;;;;4375360;32;20562;-73
2021/04/28 07:33:02;;;;;;;13.77;6.43;;;;;;;;;;4374852;32;20477;-72
2021/04/28 07:35:40;;;;;;;12.83;5.93;;;;;;;;;;4375331;32;20161;-73
2021/04/28 07:38:05;;;;;;;10.80;6.30;;;;;;;;;;4374091;32;20530;-72
2021/04/28 07:40:34;;;;;;;16.37;6.50;;;;;;;;;;4361446;32;20167;-73
2021/04/28 07:43:00;;;;;;;11.50;6.37;;;;;;;;;;4375314;32;20147;-72
2021/04/28 07:45:25;;;;;;;11.50;6.13;;;;;;;;;;4375133;32;20254;-73
2021/04/28 07:47:51;;;;;;;13.30;6.53;;;;;;;;;;4375289;32;20188;-73
2021/04/28 07:50:17;;;;;;;12.73;6.50;;;;;;;;;;4375806;32;20139;-73
2021/04/28 07:52:43;;;;;;;8.87;6.00;;;;;;;;;;4374881;32;20159;-73
2021/04/28 07:55:08;;;;;;;14.43;6.83;;;;;;;;;;4361114;32;20192;-72
2021/04/28 07:57:34;;;;;;;13.57;6.37;;;;;;;;;;4361615;32;20163;-72
2021/04/28 07:59:59;;;;;;;12.60;6.10;;;;;;;;;;4375471;32;20139;-72
2021/04/28 08:02:24;;;;;;;9.00;6.03;;;;;;;;;;4374333;32;20524;-72
2021/04/28 08:04:52;;;;;;;9.00;6.10;;;;;;;;;;4375473;32;20135;-74
2021/04/28 08:07:18;;;;;;;10.40;6.40;;;;;;;;;;4378607;32;20153;-72
2021/04/28 08:09:46;;;;;;;9.37;6.33;;;;;;;;;;4377974;32;20131;-72
2021/04/28 08:12:12;;;;;;;9.00;6.73;;;;;;;;;;4377447;32;20260;-72
2021/04/28 08:14:44;;;;;;;9.47;6.57;;;;;;;;;;4377996;32;20139;-73
2021/04/28 08:17:10;;;;;;;8.83;6.43;;;;;;;;;;4377384;32;20146;-72
2021/04/28 08:20:00;;;;;;;8.87;6.50;;;;;;;;;;4377710;32;20254;-74
2021/04/28 08:22:26;;;;;;;10.70;6.07;;;;;;;;;;4363518;32;20199;-73
2021/04/28 08:24:51;;;;;;;9.60;6.60;;;;;;;;;;4364136;32;20249;-72
2021/04/28 08:27:17;;;;;;;10.05;6.07;;;;;;;;;;4378089;32;20154;-73
2021/04/28 08:29:48;;;;;;;8.80;6.45;;;;;;;;;;4377988;32;20143;-73
2021/04/28 08:32:14;;;;;;;9.60;6.10;;;;;;;;;;4377424;32;20135;-72
2021/04/28 08:35:14;;;;;;;8.10;5.77;;;;;;;;;;4378415;32;20488;-73
2021/04/28 08:37:40;;;;;;;10.45;6.47;;;;;;;;;;4377339;32;20165;-74
2021/04/28 08:40:08;;;;;;;12.40;6.22;;;;;;;;;;4377592;32;20158;-73
2021/04/28 08:45:34;;;;;;;11.73;6.68;;;;;;;;;;4374924;32;20196;-72
2021/04/28 08:48:03;;;;;;;11.57;6.12;;;;;;;;;;4377702;32;20139;-72
2021/04/28 08:53:33;;;;;;;10.80;6.20;;;;;;;;;;4345578;33;20175;-73
2021/04/28 08:56:13;;;;;;;12.07;6.43;;;;;;;;;;4345506;33;20146;-74
2021/04/28 08:58:39;;;;;;;8.77;6.12;;;;;;;;;;4366939;32;20180;-74
2021/04/28 09:01:13;;;;;;;12.05;6.90;;;;;;;;;;4376997;32;20191;-72
2021/04/28 09:03:56;;;;;;;9.70;6.55;;;;;;;;;;4377876;32;20166;-73
2021/04/28 09:06:37;;;;;;;11.85;6.47;;;;;;;;;;4377647;32;20244;-73
2021/04/28 09:09:16;;;;;;;13.00;6.37;;;;;;;;;;4376767;32;20189;-72
2021/04/28 09:11:43;;;;;;;12.70;6.95;;;;;;;;;;4377036;32;20560;-72
2021/04/28 09:14:16;;;;;;;9.55;6.60;;;;;;;;;;4376979;32;20174;-73
2021/04/28 09:16:43;;;;;;;8.82;5.97;;;;;;;;;;4375658;32;20495;-73
2021/04/28 09:19:30;;;;;;;10.15;6.80;;;;;;;;;;4377734;32;20138;-73
2021/04/28 09:22:06;;;;;;;12.13;6.60;;;;;;;;;;4363370;32;20547;-73
2021/04/28 09:24:45;;;;;;;9.80;6.40;;;;;;;;;;4377329;32;20150;-72
2021/04/28 09:27:24;;;;;;;10.30;6.47;;;;;;;;;;4360241;32;20179;-73
2021/04/28 09:29:50;;;;;;;12.07;7.15;;;;;;;;;;4376939;32;20138;-71
2021/04/28 09:32:16;;;;;;;10.00;6.60;;;;;;;;;;4377024;32;20170;-73
2021/04/28 09:35:25;;;;;;;12.20;6.40;;;;;;;;;;4376639;32;20138;-72
2021/04/28 09:38:08;;;;;;;9.43;6.97;;;;;;;;;;4376990;32;20157;-73
2021/04/28 09:40:57;;;;;;;8.50;6.47;;;;;;;;;;4377242;32;20180;-73
2021/04/28 09:43:44;;;;;;;10.43;6.87;;;;;;;;;;4376745;32;20201;-72
2021/04/28 09:46:21;;;;;;;11.40;6.70;;;;;;;;;;4376701;32;20150;-71
2021/04/28 09:49:00;;;;;;;9.32;7.05;;;;;;;;;;4376923;32;20153;-73
2021/04/28 09:51:33;;;;;;;9.60;6.07;;;;;;;;;;4362832;32;20225;-73
2021/04/28 09:54:08;;;;;;;9.43;6.55;;;;;;;;;;4376204;32;20611;-72
2021/04/28 09:56:37;;;;;;;10.85;6.75;;;;;;;;;;4376450;32;20134;-72
2021/04/28 09:59:06;;;;;;;9.70;7.00;;;;;;;;;;4375932;32;20155;-73
2021/04/28 10:01:32;;;;;;;11.48;7.18;;;;;;;;;;4375974;32;20139;-73
2021/04/28 10:03:57;;;;;;;10.00;6.50;;;;;;;;;;4376225;32;20540;-71
2021/04/28 10:06:41;;;;;;;11.68;6.53;;;;;;;;;;4376127;32;20249;-72
2021/04/28 10:09:35;;;;;;;10.40;6.80;;;;;;;;;;4375973;32;20482;-72
2021/04/28 10:12:01;;;;;;;12.82;6.50;;;;;;;;;;4375459;32;20184;-72
2021/04/28 10:14:27;;;;;;;10.98;6.55;;;;;;;;;;4376456;32;20194;-71
2021/04/28 10:16:56;;;;;;;10.55;6.57;;;;;;;;;;4376094;32;20139;-74
2021/04/28 10:19:22;;;;;;;11.07;7.00;;;;;;;;;;4376028;32;20165;-72
2021/04/28 10:21:51;;;;;;;12.15;7.20;;;;;;;;;;4376664;32;20134;-73
2021/04/28 10:24:30;;;;;;;;;;;;;;;;;;;;;
2021/04/28 10:26:57;;;;;;;11.93;7.12;;;;;;;;;;4376105;32;20190;-72
2021/04/28 10:29:23;;;;;;;11.00;6.87;;;;;;;;;;4375247;32;20206;-74
2021/04/28 10:31:49;;;;;;;11.27;6.75;;;;;;;;;;4375974;32;20476;-72
2021/04/28 10:34:24;;;;;;;8.85;6.57;;;;;;;;;;4371543;32;20155;-73
2021/04/28 10:36:51;;;;;;;15.68;8.20;;;;;;;;;;4375851;32;20414;-72
2021/04/28 10:39:18;;;;;;;12.07;7.00;;;;;;;;;;4376056;32;20266;-73
2021/04/28 10:41:44;;;;;;;10.77;7.22;;;;;;;;;;4362412;32;20231;-73
2021/04/28 10:44:28;;;;;;;11.30;7.03;;;;;;;;;;4375656;32;20139;-73
2021/04/28 10:47:39;;;;;;;10.27;6.82;;;;;;;;;;4375715;32;20135;-73
2021/04/28 10:50:08;;;;;;;12.10;7.22;;;;;;;;;;4314892;33;20178;-70
2021/04/28 10:52:41;;;;;;;11.10;7.35;;;;;;;;;;4302261;33;20164;-74
2021/04/28 10:56:15;;;;;;;12.30;6.82;;;;;;;;;;4345585;32;20681;-74
2021/04/28 10:58:31;;;;;;;11.25;7.03;;;;;;;;;;4296604;33;20168;-73
2021/04/28 11:01:15;;;;;;;10.63;7.57;;;;;;;;;;4371784;32;20131;-73
2021/04/28 11:04:19;;;;;;;12.45;6.68;;;;;;;;;;4375461;32;20508;-74
2021/04/28 11:06:48;;;;;;;11.93;7.22;;;;;;;;;;4299663;33;20183;-74
2021/04/28 11:09:16;;;;;;;13.35;7.60;;;;;;;;;;4299505;33;20539;-70
2021/04/28 11:11:46;;;;;;;10.13;7.28;;;;;;;;;;4332367;32;20185;-73
2021/04/28 11:14:11;;;;;;;11.00;7.62;;;;;;;;;;4374941;32;20165;-73
2021/04/28 11:16:47;;;;;;;12.20;7.28;;;;;;;;;;4375538;32;20130;-73
2021/04/28 11:19:16;;;;;;;9.13;7.30;;;;;;;;;;4374999;32;20146;-75
2021/04/28 11:22:02;;;;;;;8.15;6.70;;;;;;;;;;4362367;32;20181;-73
2021/04/28 11:24:27;;;;;;;8.95;7.05;;;;;;;;;;4364706;32;20158;-73
2021/04/28 11:26:52;;;;;;;10.70;7.23;;;;;;;;;;4375482;32;20176;-73
2021/04/28 11:29:18;;;;;;;9.73;7.05;;;;;;;;;;4361577;32;20620;-73
2021/04/28 11:31:48;;;;;;;8.07;6.75;;;;;;;;;;4375007;32;20188;-73
2021/04/28 11:34:20;;;;;;;9.95;7.32;;;;;;;;;;4374796;32;20241;-73
2021/04/28 11:37:21;;;;;;;9.45;6.95;;;;;;;;;;4375072;32;20434;-73
2021/04/28 11:39:56;;;;;;;11.57;7.35;;;;;;;;;;4374894;32;20190;-73
2021/04/28 11:42:24;;;;;;;11.60;7.60;;;;;;;;;;4374500;32;20126;-73
2021/04/28 11:44:51;;;;;;;8.50;6.87;;;;;;;;;;4375241;32;20173;-73
2021/04/28 11:47:38;;;;;;;10.25;7.15;;;;;;;;;;4374839;32;20165;-74
2021/04/28 11:50:08;;;;;;;10.25;7.30;;;;;;;;;;4375179;32;20150;-73
2021/04/28 11:52:52;;;;;;;;;;;;;;;;;;;;;
2021/04/28 11:58:36;;;;;;;11.85;7.45;;;;;;;;;;4345431;33;20182;-74
2021/04/28 12:01:01;;;;;;;10.45;7.57;;;;;;;;;;4345528;33;20131;-73
2021/04/28 12:04:38;;;;;;;;;;;;;;;;;;;;;
2021/04/28 12:06:54;;;;;;;9.52;7.68;;;;;;;;;;4340774;33;20238;-73
2021/04/28 12:09:43;;;;;;;11.48;7.95;;;;;;;;;;4345250;33;20214;-73
2021/04/28 12:12:15;;;;;;;8.95;7.22;;;;;;;;;;4345358;33;20147;-73
2021/04/28 12:14:48;;;;;;;9.63;7.37;;;;;;;;;;4344900;33;20223;-70
2021/04/28 12:17:15;;;;;;;12.37;7.78;;;;;;;;;;4345313;33;20572;-74
2021/04/28 12:19:54;;;;;;;13.75;8.25;;;;;;;;;;4344720;33;20178;-73
2021/04/28 12:22:20;;;;;;;10.70;7.50;;;;;;;;;;4345527;33;20451;-73
2021/04/28 12:24:50;;;;;;;12.27;8.13;;;;;;;;;;4345170;33;20163;-72
2021/04/28 12:27:22;;;;;;;12.32;7.80;;;;;;;;;;4352587;33;20185;-74
2021/04/28 12:29:51;;;;;;;12.57;7.80;;;;;;;;;;4359893;33;20131;-73
2021/04/28 12:32:23;;;;;;;13.32;7.90;;;;;;;;;;4359984;33;20480;-73
2021/04/28 12:34:48;;;;;;;16.52;8.70;;;;;;;;;;4359534;33;20191;-74
2021/04/28 12:37:23;;;;;;;12.52;8.40;;;;;;;;;;4359527;33;20226;-72
2021/04/28 12:39:50;;;;;;;11.35;8.35;;;;;;;;;;4359555;33;20154;-74
2021/04/28 12:42:19;;;;;;;12.25;8.32;;;;;;;;;;4359749;33;20135;-74
2021/04/28 12:44:49;;;;;;;13.07;8.43;;;;;;;;;;4360194;33;20557;-74
2021/04/28 12:47:15;;;;;;;15.80;8.50;;;;;;;;;;4360030;33;20157;-71
2021/04/28 12:49:54;;;;;;;20.85;8.65;;;;;;;;;;4360025;33;20146;-73
2021/04/28 12:52:19;;;;;;;11.82;8.32;;;;;;;;;;4360543;32;20135;-74
2021/04/28 12:54:45;;;;;;;11.65;8.45;;;;;;;;;;4362118;32;20181;-74
2021/04/28 12:57:21;;;;;;;13.80;8.18;;;;;;;;;;4349173;33;20166;-72
2021/04/28 13:00:03;;;;;;;12.23;7.87;;;;;;;;;;4363031;32;20181;-74
2021/04/28 13:02:31;;;;;;;12.85;8.20;;;;;;;;;;4349334;33;20155;-73
2021/04/28 13:04:56;;;;;;;13.18;8.43;;;;;;;;;;4362204;33;20151;-73
2021/04/28 13:07:23;;;;;;;13.60;8.52;;;;;;;;;;4362003;32;20131;-69
2021/04/28 13:10:10;;;;;;;12.90;8.50;;;;;;;;;;4348334;33;20543;-73
2021/04/28 13:12:41;;;;;;;11.93;8.57;;;;;;;;;;4361647;32;20237;-73
2021/04/28 13:15:31;;;;;;;16.27;8.50;;;;;;;;;;4361505;33;20293;-73
2021/04/28 13:18:01;;;;;;;12.20;8.38;;;;;;;;;;4362315;32;20193;-69
2021/04/28 13:20:33;;;;;;;12.63;8.57;;;;;;;;;;4362026;32;20175;-74
2021/04/28 13:23:18;;;;;;;13.13;9.02;;;;;;;;;;4361392;32;20437;-73
2021/04/28 13:25:46;;;;;;;11.57;8.70;;;;;;;;;;4362070;32;20545;-72
2021/04/28 13:28:30;;;;;;;12.50;8.80;;;;;;;;;;4374959;32;20513;-73
2021/04/28 13:31:14;;;;;;;13.07;8.27;;;;;;;;;;4376391;32;20172;-74
2021/04/28 13:33:40;;;;;;;14.25;8.40;;;;;;;;;;4376548;32;20162;-74
2021/04/28 13:36:05;;;;;;;11.57;8.77;;;;;;;;;;4376450;32;20135;-71
2021/04/28 13:38:44;;;;;;;13.55;9.05;;;;;;;;;;4376384;32;20157;-74
2021/04/28 13:41:10;;;;;;;12.98;8.98;;;;;;;;;;4376484;32;20197;-74
2021/04/28 13:43:35;;;;;;;16.37;8.10;;;;;;;;;;4376788;32;20189;-74
2021/04/28 13:46:01;;;;;;;17.62;9.23;;;;;;;;;;4370017;32;20139;-69
2021/04/28 13:48:29;;;;;;;15.25;8.68;;;;;;;;;;4348008;33;20217;-74
2021/04/28 13:50:54;;;;;;;10.82;8.32;;;;;;;;;;4361325;32;20166;-72
2021/04/28 13:53:19;;;;;;;12.10;9.00;;;;;;;;;;4362105;32;20142;-73
2021/04/28 13:55:45;;;;;;;14.13;8.75;;;;;;;;;;4361281;33;20239;-73
2021/04/28 13:58:10;;;;;;;14.48;8.85;;;;;;;;;;4361814;32;20142;-74
2021/04/28 14:00:35;;;;;;;11.15;8.38;;;;;;;;;;4361044;33;20201;-73
2021/04/28 14:03:00;;;;;;;19.50;9.38;;;;;;;;;;4361453;32;20206;-71
2021/04/28 14:05:29;;;;;;;15.15;9.15;;;;;;;;;;4361566;32;20136;-72
2021/04/28 14:07:54;;;;;;;12.18;8.68;;;;;;;;;;4362240;32;20131;-73
2021/04/28 14:10:21;;;;;;;13.45;8.80;;;;;;;;;;4361513;32;20485;-73
2021/04/28 14:12:46;;;;;;;12.88;8.75;;;;;;;;;;4361065;32;20182;-72
2021/04/28 14:15:12;;;;;;;13.88;8.55;;;;;;;;;;4360558;32;20474;-70
2021/04/28 14:17:37;;;;;;;18.65;10.48;;;;;;;;;;4346901;33;20459;-72
2021/04/28 14:20:03;;;;;;;13.00;9.05;;;;;;;;;;4359718;32;20600;-73
2021/04/28 14:22:29;;;;;;;13.80;9.35;;;;;;;;;;4359823;32;20625;-71
2021/04/28 14:24:54;;;;;;;13.50;9.10;;;;;;;;;;4361059;32;20533;-71
2021/04/28 14:27:22;;;;;;;12.68;8.70;;;;;;;;;;4352980;33;20279;-72
2021/04/28 14:29:48;;;;;;;14.20;9.18;;;;;;;;;;4346043;33;20206;-71
2021/04/28 14:32:13;;;;;;;13.52;8.93;;;;;;;;;;4332731;33;20163;-72
2021/04/28 14:34:41;;;;;;;16.40;9.50;;;;;;;;;;4346285;33;20135;-73
2021/04/28 14:37:07;;;;;;;14.38;8.75;;;;;;;;;;4345589;33;20178;-75
2021/04/28 14:39:32;;;;;;;13.40;8.63;;;;;;;;;;4345693;33;20139;-71
2021/04/28 14:42:00;;;;;;;11.68;8.55;;;;;;;;;;4332465;33;20190;-73
2021/04/28 14:44:25;;;;;;;12.25;8.93;;;;;;;;;;4346129;33;20135;-73
2021/04/28 14:46:51;;;;;;;12.52;9.20;;;;;;;;;;4346668;33;20506;-74
2021/04/28 14:52:05;;;;;;;11.52;8.88;;;;;;;;;;4339826;33;20163;-73
2021/04/28 14:54:30;;;;;;;13.27;9.10;;;;;;;;;;4345867;33;20573;-74
2021/04/28 14:56:56;;;;;;;15.85;8.73;;;;;;;;;;4345648;33;20224;-73
2021/04/28 14:59:21;;;;;;;12.70;8.32;;;;;;;;;;4346048;33;20534;-74
2021/04/28 15:01:52;;;;;;;13.77;8.52;;;;;;;;;;4345507;33;20443;-72
2021/04/28 15:04:18;;;;;;;13.62;9.02;;;;;;;;;;4345981;33;20155;-75
2021/04/28 15:06:43;;;;;;;10.50;8.50;;;;;;;;;;4345716;33;20207;-73
2021/04/28 15:09:08;;;;;;;14.65;8.65;;;;;;;;;;4345355;33;20135;-74
2021/04/28 15:11:46;;;;;;;16.87;8.95;;;;;;;;;;4346103;33;20167;-74
2021/04/28 15:14:11;;;;;;;14.00;8.85;;;;;;;;;;4344949;33;20221;-74
2021/04/28 15:16:37;;;;;;;14.37;8.40;;;;;;;;;;4345349;33;20548;-74
2021/04/28 15:19:02;;;;;;;13.73;8.50;;;;;;;;;;4345087;33;20232;-74
2021/04/28 15:21:27;;;;;;;13.82;9.00;;;;;;;;;;4345317;33;20190;-73
2021/04/28 15:23:53;;;;;;;14.00;9.25;;;;;;;;;;4346390;33;20131;-72
2021/04/28 15:26:19;;;;;;;12.25;9.40;;;;;;;;;;4345311;33;20549;-72
2021/04/28 15:28:45;;;;;;;11.52;8.48;;;;;;;;;;4345937;33;20135;-73
2021/04/28 15:31:10;;;;;;;13.85;9.00;;;;;;;;;;4345706;33;20132;-73
2021/04/28 15:33:35;;;;;;;13.73;8.50;;;;;;;;;;4345138;33;20175;-74
2021/04/28 15:36:01;;;;;;;15.20;8.88;;;;;;;;;;4345092;33;20131;-73
2021/04/28 15:38:26;;;;;;;17.08;9.00;;;;;;;;;;4344849;33;20287;-72
2021/04/28 15:40:51;;;;;;;15.38;8.57;;;;;;;;;;4345594;33;20135;-73
2021/04/28 15:43:17;;;;;;;13.65;8.35;;;;;;;;;;4345127;33;20508;-75
2021/04/28 15:45:51;;;;;;;14.20;8.15;;;;;;;;;;4345129;33;20147;-73
2021/04/28 15:48:16;;;;;;;12.90;8.88;;;;;;;;;;4346086;33;20604;-73